Time;durP1;ratioP1;P1;durP2;ratioP2;P2;SDS_P1;SDS_P2;PMS_P1;PMS_P2;Temp;Humidity;BMP_temperature;BMP_pressure;BME280_temperature;BME280_humidity;BME280_pressure;Samples;Min_cycle;Max_cycle;Signal;HPM_P1;HPM_P2
2021/12/06 00:02:22;;;;;;;;;;;7.10;92.90;;;;;;5044614;28;19916;-61
2021/12/06 00:04:47;;;;;;;;;;;7.00;92.90;;;;;;5046581;28;19982;-61
2021/12/06 00:07:14;;;;;;;;;;;7.00;92.90;;;;;;5061736;28;19924;-61
2021/12/06 00:09:40;;;;;;;;;;;7.10;92.90;;;;;;5045846;28;19915;-60
2021/12/06 00:12:06;;;;;;;;;;;7.00;92.90;;;;;;5054271;28;19912;-60
2021/12/06 00:14:34;;;;;;;;;;;7.10;93.00;;;;;;5047076;28;19913;-61
2021/12/06 00:17:00;;;;;;;;;;;7.00;92.90;;;;;;5044102;28;19927;-61
2021/12/06 00:19:26;;;;;;;;;;;7.10;92.90;;;;;;5044556;28;19916;-60
2021/12/06 00:21:51;;;;;;;;;;;7.00;92.90;;;;;;5059083;28;19905;-61
2021/12/06 00:24:17;;;;;;;;;;;7.00;92.90;;;;;;5043281;28;19916;-61
2021/12/06 00:26:42;;;;;;;;;;;7.00;92.90;;;;;;5055875;28;20010;-61
2021/12/06 00:29:09;;;;;;;;;;;7.00;92.90;;;;;;5061072;28;19908;-60
2021/12/06 00:31:34;;;;;;;;;;;7.00;92.90;;;;;;5046383;28;19912;-61
2021/12/06 00:34:04;;;;;;;;;;;7.00;92.90;;;;;;5061809;28;20001;-60
2021/12/06 00:36:31;;;;;;;;;;;7.00;92.90;;;;;;5044519;28;19912;-60
2021/12/06 00:38:57;;;;;;;;;;;7.00;92.90;;;;;;5061417;28;19922;-61
2021/12/06 00:41:22;;;;;;;;;;;7.00;92.90;;;;;;5062521;28;19912;-61
2021/12/06 00:43:48;;;;;;;;;;;7.00;93.20;;;;;;5062230;28;20685;-60
2021/12/06 00:46:13;;;;;;;;;;;7.00;92.90;;;;;;5044583;28;20360;-61
2021/12/06 00:48:39;;;;;;;;;;;7.00;92.90;;;;;;5044437;28;20005;-62
2021/12/06 00:51:04;;;;;;;;;;;6.90;92.90;;;;;;5050945;28;19920;-61
2021/12/06 00:53:30;;;;;;;;;;;7.00;92.90;;;;;;5062524;28;19924;-61
2021/12/06 00:55:55;;;;;;;;;;;7.00;92.90;;;;;;5060727;28;19913;-61
2021/12/06 00:58:21;;;;;;;;;;;7.00;92.90;;;;;;5046956;28;19919;-61
2021/12/06 01:00:47;;;;;;;;;;;7.00;92.90;;;;;;5049888;28;19908;-61
2021/12/06 01:03:13;;;;;;;;;;;7.00;92.90;;;;;;5060696;28;19916;-61
2021/12/06 01:05:39;;;;;;;;;;;7.00;92.90;;;;;;5061043;28;19955;-61
2021/12/06 01:08:04;;;;;;;;;;;6.90;92.90;;;;;;5028807;28;19908;-60
2021/12/06 01:10:30;;;;;;;;;;;6.90;92.90;;;;;;5046018;28;19923;-61
2021/12/06 01:12:55;;;;;;;;;;;6.90;92.90;;;;;;5062942;28;19914;-60
2021/12/06 01:15:21;;;;;;;;;;;6.90;92.90;;;;;;5059767;28;19998;-61
2021/12/06 01:17:47;;;;;;;;;;;6.90;92.90;;;;;;5060644;28;19911;-61
2021/12/06 01:20:14;;;;;;;;;;;6.90;92.90;;;;;;5044704;28;19944;-61
2021/12/06 01:22:48;;;;;;;;;;;6.90;93.00;;;;;;5043553;28;19920;-60
2021/12/06 01:25:32;;;;;;;;;;;6.90;92.90;;;;;;5057186;28;19995;-61
2021/12/06 01:40:42;;;;;;;;;;;6.90;92.90;;;;;;5061248;28;20279;-61
2021/12/06 01:43:08;;;;;;;;;;;6.90;92.90;;;;;;5060986;28;19912;-61
2021/12/06 01:45:33;;;;;;;;;;;6.90;92.90;;;;;;5061223;28;19923;-61
2021/12/06 01:47:59;;;;;;;;;;;6.90;92.90;;;;;;5060650;28;19915;-61
2021/12/06 01:50:25;;;;;;;;;;;6.90;92.90;;;;;;5051668;28;20383;-61
2021/12/06 01:52:52;;;;;;;;;;;6.90;92.90;;;;;;5060965;28;19924;-61
2021/12/06 01:55:22;;;;;;;;;;;6.90;92.90;;;;;;5064104;28;19908;-61
2021/12/06 01:57:48;;;;;;;;;;;6.90;92.90;;;;;;5064563;28;19919;-62
2021/12/06 02:00:16;;;;;;;;;;;6.90;92.90;;;;;;5047444;28;19909;-61
2021/12/06 02:02:41;;;;;;;;;;;6.90;92.90;;;;;;5061113;28;19920;-60
2021/12/06 02:05:07;;;;;;;;;;;6.80;92.90;;;;;;5046377;28;19920;-61
2021/12/06 02:07:32;;;;;;;;;;;6.90;92.90;;;;;;5060434;28;19917;-60
2021/12/06 02:09:58;;;;;;;;;;;6.90;92.90;;;;;;5046947;28;20545;-61
2021/12/06 02:12:26;;;;;;;;;;;6.80;92.90;;;;;;5064762;28;19908;-61
2021/12/06 02:17:28;;;;;;;;;;;6.90;92.90;;;;;;5060997;28;20299;-60
2021/12/06 02:19:57;;;;;;;;;;;6.80;92.90;;;;;;5045574;28;19916;-60
2021/12/06 02:22:24;;;;;;;;;;;6.80;92.80;;;;;;5061922;28;20046;-61
2021/12/06 02:24:50;;;;;;;;;;;6.80;92.80;;;;;;5047815;28;19924;-61
2021/12/06 02:27:16;;;;;;;;;;;6.80;92.80;;;;;;5046200;28;19916;-61
2021/12/06 02:29:42;;;;;;;;;;;6.80;92.80;;;;;;5060726;28;19920;-61
2021/12/06 02:32:10;;;;;;;;;;;6.80;92.80;;;;;;5046483;28;19950;-61
2021/12/06 02:34:43;;;;;;;;;;;6.80;92.80;;;;;;5046673;28;20232;-61
2021/12/06 02:37:09;;;;;;;;;;;6.80;92.80;;;;;;5046364;28;19966;-60
2021/12/06 02:39:36;;;;;;;;;;;6.80;92.80;;;;;;5065955;28;20434;-60
2021/12/06 02:42:01;;;;;;;;;;;6.80;92.80;;;;;;5063230;28;19953;-59
2021/12/06 02:44:27;;;;;;;;;;;6.80;92.80;;;;;;5046116;28;19916;-59
2021/12/06 02:46:53;;;;;;;;;;;6.80;92.80;;;;;;5063112;28;19916;-60
2021/12/06 02:49:18;;;;;;;;;;;6.80;92.80;;;;;;5063851;28;20340;-60
2021/12/06 02:51:44;;;;;;;;;;;6.70;92.80;;;;;;5048836;28;19916;-60
2021/12/06 02:54:10;;;;;;;;;;;6.70;92.80;;;;;;5047989;28;19955;-60
2021/12/06 02:59:20;;;;;;;;;;;6.80;92.90;;;;;;5061157;28;19954;-60
2021/12/06 03:01:47;;;;;;;;;;;6.70;92.80;;;;;;5061003;28;20346;-60
2021/12/06 03:04:13;;;;;;;;;;;6.80;92.80;;;;;;5064381;28;19924;-60
2021/12/06 03:06:40;;;;;;;;;;;6.70;92.90;;;;;;5046231;28;20322;-60
2021/12/06 03:09:13;;;;;;;;;;;6.70;92.90;;;;;;5046417;28;19916;-61
2021/12/06 03:11:39;;;;;;;;;;;6.70;92.80;;;;;;5052879;28;19912;-60
2021/12/06 03:14:06;;;;;;;;;;;6.70;92.80;;;;;;5062161;28;20355;-61
2021/12/06 03:16:31;;;;;;;;;;;6.70;92.80;;;;;;5046022;28;20011;-61
2021/12/06 03:18:57;;;;;;;;;;;6.70;92.90;;;;;;5062283;28;19991;-60
2021/12/06 03:21:22;;;;;;;;;;;6.70;92.90;;;;;;5063193;28;20323;-61
2021/12/06 03:23:48;;;;;;;;;;;6.70;92.80;;;;;;5062557;28;20315;-61
2021/12/06 03:26:13;;;;;;;;;;;6.70;92.80;;;;;;5045531;28;19967;-61
2021/12/06 03:28:39;;;;;;;;;;;6.70;92.80;;;;;;5047086;28;20312;-61
2021/12/06 03:31:06;;;;;;;;;;;6.70;92.80;;;;;;5063441;28;19946;-61
2021/12/06 03:33:34;;;;;;;;;;;6.70;92.80;;;;;;5063135;28;19915;-60
2021/12/06 03:35:59;;;;;;;;;;;6.70;92.80;;;;;;5044732;28;19924;-61
2021/12/06 03:38:25;;;;;;;;;;;6.70;92.80;;;;;;5055782;28;19908;-60
2021/12/06 03:40:50;;;;;;;;;;;6.60;92.70;;;;;;5063441;28;19955;-60
2021/12/06 03:43:16;;;;;;;;;;;6.70;92.80;;;;;;5064630;28;19912;-60
2021/12/06 03:45:41;;;;;;;;;;;6.60;92.80;;;;;;5062899;28;20403;-62
2021/12/06 03:48:07;;;;;;;;;;;6.70;92.80;;;;;;5061725;28;19931;-61
2021/12/06 03:50:32;;;;;;;;;;;6.60;92.70;;;;;;5062712;28;20685;-61
2021/12/06 03:52:58;;;;;;;;;;;6.60;92.70;;;;;;5063743;28;20603;-61
2021/12/06 03:55:23;;;;;;;;;;;6.60;92.70;;;;;;5045686;28;20033;-61
2021/12/06 03:57:49;;;;;;;;;;;6.70;92.70;;;;;;5046482;28;19949;-62
2021/12/06 04:00:14;;;;;;;;;;;6.60;92.70;;;;;;5045293;28;19947;-61
2021/12/06 04:02:40;;;;;;;;;;;6.60;92.80;;;;;;5060711;28;20406;-60
2021/12/06 04:05:06;;;;;;;;;;;6.60;92.70;;;;;;5062147;28;19986;-60
2021/12/06 04:07:31;;;;;;;;;;;6.60;92.80;;;;;;5029262;28;19909;-60
2021/12/06 04:09:56;;;;;;;;;;;6.60;92.70;;;;;;5063389;28;19961;-61
2021/12/06 04:12:22;;;;;;;;;;;6.60;92.70;;;;;;5044638;28;19916;-60
2021/12/06 04:14:47;;;;;;;;;;;6.60;92.70;;;;;;5050093;28;20343;-61
2021/12/06 04:17:13;;;;;;;;;;;6.60;92.80;;;;;;5059840;28;19965;-60
2021/12/06 04:19:42;;;;;;;;;;;6.60;92.70;;;;;;5060741;28;20076;-61
2021/12/06 04:22:07;;;;;;;;;;;6.60;92.70;;;;;;5063623;28;19912;-60
2021/12/06 04:24:33;;;;;;;;;;;6.60;92.80;;;;;;5045084;28;19916;-61
2021/12/06 04:27:00;;;;;;;;;;;6.60;92.80;;;;;;5060037;28;19912;-61
2021/12/06 04:29:26;;;;;;;;;;;6.60;92.80;;;;;;5029258;28;19910;-60
2021/12/06 04:31:52;;;;;;;;;;;6.60;92.80;;;;;;5043719;28;20347;-61
2021/12/06 04:34:18;;;;;;;;;;;6.60;92.70;;;;;;5045359;28;20427;-60
2021/12/06 04:36:43;;;;;;;;;;;6.60;92.70;;;;;;5061924;28;19995;-60
2021/12/06 04:39:09;;;;;;;;;;;6.60;92.70;;;;;;5045412;28;20007;-61
2021/12/06 04:41:35;;;;;;;;;;;6.60;92.70;;;;;;5044651;28;20029;-60
2021/12/06 04:44:01;;;;;;;;;;;6.60;92.80;;;;;;5026959;28;19932;-61
2021/12/06 04:46:26;;;;;;;;;;;6.60;93.10;;;;;;5042305;28;19916;-61
2021/12/06 04:48:51;;;;;;;;;;;6.60;92.80;;;;;;5053189;28;19911;-60
2021/12/06 04:51:17;;;;;;;;;;;6.60;92.80;;;;;;5043598;28;19916;-61
2021/12/06 04:53:42;;;;;;;;;;;6.60;92.70;;;;;;5043505;28;19913;-60
2021/12/06 04:56:19;;;;;;;;;;;6.60;92.70;;;;;;5061249;28;20403;-62
2021/12/06 04:59:08;;;;;;;;;;;6.60;92.70;;;;;;5044163;28;19904;-61
2021/12/06 05:01:34;;;;;;;;;;;6.60;92.70;;;;;;5025060;28;20220;-60
2021/12/06 05:04:00;;;;;;;;;;;6.60;92.80;;;;;;5062316;28;19916;-60
2021/12/06 05:06:27;;;;;;;;;;;6.60;92.70;;;;;;5044061;28;20026;-61
2021/12/06 05:08:53;;;;;;;;;;;6.60;92.70;;;;;;5060336;28;21050;-60
2021/12/06 05:11:19;;;;;;;;;;;6.60;92.70;;;;;;5044685;28;20022;-61
2021/12/06 05:13:45;;;;;;;;;;;6.40;92.60;;;;;;5043791;28;20014;-60
2021/12/06 05:16:10;;;;;;;;;;;6.60;92.60;;;;;;5044251;28;20069;-61
2021/12/06 05:18:36;;;;;;;;;;;6.50;92.60;;;;;;5042967;28;19908;-61
2021/12/06 05:21:01;;;;;;;;;;;6.60;92.70;;;;;;5042768;28;20585;-60
2021/12/06 05:23:27;;;;;;;;;;;6.60;92.70;;;;;;5043647;28;19913;-60
2021/12/06 05:25:52;;;;;;;;;;;6.50;92.70;;;;;;5043789;28;19917;-61
2021/12/06 05:28:22;;;;;;;;;;;6.50;92.70;;;;;;5047498;28;19995;-61
2021/12/06 05:30:49;;;;;;;;;;;6.50;92.60;;;;;;5064158;28;19908;-61
2021/12/06 05:33:28;;;;;;;;;;;6.50;92.60;;;;;;5066186;28;19913;-61
2021/12/06 05:35:53;;;;;;;;;;;6.50;92.70;;;;;;5065138;28;20270;-61
2021/12/06 05:38:18;;;;;;;;;;;6.50;92.70;;;;;;5063403;28;19908;-61
2021/12/06 05:40:46;;;;;;;;;;;6.50;92.70;;;;;;5049492;28;19917;-61
2021/12/06 05:43:12;;;;;;;;;;;6.50;92.70;;;;;;5046622;28;20457;-61
2021/12/06 05:45:37;;;;;;;;;;;6.50;92.80;;;;;;5031213;28;19909;-61
2021/12/06 05:48:03;;;;;;;;;;;6.50;92.80;;;;;;5061621;28;20009;-60
2021/12/06 05:50:29;;;;;;;;;;;6.50;92.80;;;;;;5064325;28;19919;-60
2021/12/06 05:52:54;;;;;;;;;;;6.50;92.80;;;;;;5064510;28;19957;-60
2021/12/06 05:55:20;;;;;;;;;;;6.50;92.90;;;;;;5047689;28;20557;-61
2021/12/06 05:57:45;;;;;;;;;;;6.50;92.80;;;;;;5030663;28;19909;-60
2021/12/06 06:00:12;;;;;;;;;;;6.50;92.80;;;;;;5064408;28;20320;-61
2021/12/06 06:02:38;;;;;;;;;;;6.50;92.80;;;;;;5064577;28;20381;-61
2021/12/06 06:05:03;;;;;;;;;;;6.50;92.90;;;;;;5044553;28;19920;-61
2021/12/06 06:07:29;;;;;;;;;;;6.50;92.80;;;;;;5043827;28;19916;-61
2021/12/06 06:09:54;;;;;;;;;;;6.50;92.90;;;;;;5049712;28;19908;-61
2021/12/06 06:12:20;;;;;;;;;;;6.50;93.10;;;;;;5050946;28;19959;-61
2021/12/06 06:14:45;;;;;;;;;;;6.40;92.80;;;;;;5060667;28;20022;-60
2021/12/06 06:17:13;;;;;;;;;;;6.50;92.90;;;;;;5042756;28;19913;-61
2021/12/06 06:19:41;;;;;;;;;;;6.50;92.80;;;;;;5059434;28;20283;-61
2021/12/06 06:22:06;;;;;;;;;;;6.50;92.80;;;;;;5058675;28;20305;-61
2021/12/06 06:24:32;;;;;;;;;;;6.50;92.90;;;;;;5043889;28;19924;-60
2021/12/06 06:26:57;;;;;;;;;;;6.50;92.80;;;;;;5052484;28;20764;-61
2021/12/06 06:29:23;;;;;;;;;;;6.50;92.80;;;;;;5043437;28;19917;-61
2021/12/06 06:31:48;;;;;;;;;;;6.40;92.80;;;;;;5052112;28;19956;-60
2021/12/06 06:34:14;;;;;;;;;;;6.50;92.80;;;;;;5058031;28;19916;-61
2021/12/06 06:36:39;;;;;;;;;;;6.60;92.90;;;;;;5042293;28;19954;-61
2021/12/06 06:39:05;;;;;;;;;;;6.40;92.80;;;;;;5038514;28;19951;-61
2021/12/06 06:41:31;;;;;;;;;;;6.40;92.80;;;;;;5036109;28;20980;-61
2021/12/06 06:43:57;;;;;;;;;;;6.50;92.80;;;;;;5057592;28;19919;-60
2021/12/06 06:46:23;;;;;;;;;;;6.40;92.80;;;;;;5056640;28;19909;-61
2021/12/06 06:48:48;;;;;;;;;;;6.40;92.90;;;;;;5040111;28;20450;-61
2021/12/06 06:51:13;;;;;;;;;;;6.50;92.90;;;;;;5056321;28;19913;-60
2021/12/06 06:53:39;;;;;;;;;;;6.50;93.00;;;;;;5058386;28;19917;-61
2021/12/06 06:56:04;;;;;;;;;;;6.40;93.00;;;;;;5045252;28;20003;-60
2021/12/06 06:58:30;;;;;;;;;;;6.40;93.00;;;;;;5043458;28;20292;-60
2021/12/06 07:00:55;;;;;;;;;;;6.40;93.00;;;;;;5057880;28;19952;-61
2021/12/06 07:03:21;;;;;;;;;;;6.40;93.00;;;;;;5040505;28;20423;-61
2021/12/06 07:05:46;;;;;;;;;;;6.40;93.10;;;;;;5060417;28;20118;-61
2021/12/06 07:08:12;;;;;;;;;;;6.40;93.00;;;;;;5061366;28;19909;-61
2021/12/06 07:10:37;;;;;;;;;;;6.40;93.00;;;;;;5060669;28;19948;-60
2021/12/06 07:13:07;;;;;;;;;;;6.40;93.00;;;;;;5054179;28;20457;-61
2021/12/06 07:15:33;;;;;;;;;;;6.40;93.00;;;;;;5060180;28;19919;-61
2021/12/06 07:17:58;;;;;;;;;;;6.40;93.00;;;;;;5044559;28;19916;-61
2021/12/06 07:20:24;;;;;;;;;;;6.40;93.00;;;;;;5059002;28;20614;-61
2021/12/06 07:22:52;;;;;;;;;;;6.40;93.00;;;;;;5045733;28;20509;-61
2021/12/06 07:25:17;;;;;;;;;;;6.40;93.00;;;;;;5045955;28;19916;-60
2021/12/06 07:27:43;;;;;;;;;;;6.50;93.00;;;;;;5061375;28;19981;-61
2021/12/06 07:30:08;;;;;;;;;;;6.60;93.10;;;;;;5061818;28;19904;-60
2021/12/06 07:32:34;;;;;;;;;;;6.40;93.00;;;;;;5062199;28;20975;-60
2021/12/06 07:34:59;;;;;;;;;;;6.40;93.00;;;;;;5060441;28;19973;-60
2021/12/06 07:37:25;;;;;;;;;;;6.40;93.00;;;;;;5044392;28;19938;-60
2021/12/06 07:39:50;;;;;;;;;;;6.40;92.90;;;;;;5045344;28;20360;-60
2021/12/06 07:42:16;;;;;;;;;;;6.30;92.90;;;;;;5060485;28;19908;-60
2021/12/06 07:44:41;;;;;;;;;;;6.30;92.90;;;;;;5061778;28;20208;-60
2021/12/06 07:47:07;;;;;;;;;;;6.40;92.80;;;;;;5059732;28;19970;-60
2021/12/06 07:49:33;;;;;;;;;;;6.40;92.80;;;;;;5044371;28;20006;-60
2021/12/06 07:51:58;;;;;;;;;;;6.40;92.80;;;;;;5029519;28;19958;-60
2021/12/06 07:54:23;;;;;;;;;;;6.40;92.80;;;;;;5049060;28;19927;-60
2021/12/06 07:56:49;;;;;;;;;;;6.40;92.80;;;;;;5059010;28;19920;-61
2021/12/06 07:59:14;;;;;;;;;;;6.40;92.80;;;;;;5058337;28;20330;-60
2021/12/06 08:01:40;;;;;;;;;;;6.40;92.80;;;;;;5040090;28;19956;-61
2021/12/06 08:04:05;;;;;;;;;;;6.40;92.80;;;;;;5057023;28;20736;-60
2021/12/06 08:06:31;;;;;;;;;;;6.40;92.80;;;;;;5060646;28;20352;-61
2021/12/06 08:08:56;;;;;;;;;;;6.40;92.90;;;;;;5046354;28;20349;-60
2021/12/06 08:11:22;;;;;;;;;;;6.40;92.90;;;;;;5042873;28;19955;-60
2021/12/06 08:13:50;;;;;;;;;;;6.40;92.90;;;;;;5062815;28;19942;-60
2021/12/06 08:16:19;;;;;;;;;;;6.40;92.90;;;;;;5061628;28;19950;-61
2021/12/06 08:18:45;;;;;;;;;;;6.40;92.90;;;;;;5044278;28;19970;-60
2021/12/06 08:21:11;;;;;;;;;;;6.40;92.90;;;;;;5063663;28;20355;-61
2021/12/06 08:23:37;;;;;;;;;;;6.40;92.90;;;;;;5046293;28;20367;-60
2021/12/06 08:26:03;;;;;;;;;;;6.40;92.80;;;;;;5043138;28;20303;-60
2021/12/06 08:28:30;;;;;;;;;;;6.40;92.80;;;;;;5043450;28;19952;-59
2021/12/06 08:30:56;;;;;;;;;;;6.40;93.10;;;;;;5046690;28;19938;-60
2021/12/06 08:33:21;;;;;;;;;;;6.40;92.80;;;;;;5042958;28;19920;-60
2021/12/06 08:35:48;;;;;;;;;;;6.40;92.90;;;;;;5051517;28;19912;-61
2021/12/06 08:38:14;;;;;;;;;;;6.40;92.90;;;;;;5044754;28;19912;-60
2021/12/06 08:40:40;;;;;;;;;;;6.40;92.90;;;;;;5061513;28;19915;-61
2021/12/06 08:43:05;;;;;;;;;;;6.50;92.90;;;;;;5058178;28;20306;-61
2021/12/06 08:45:30;;;;;;;;;;;6.50;92.80;;;;;;5061607;28;19909;-60
2021/12/06 08:47:56;;;;;;;;;;;6.50;92.80;;;;;;5044444;28;19923;-60
2021/12/06 08:50:22;;;;;;;;;;;6.50;92.80;;;;;;5044268;28;19916;-61
2021/12/06 08:52:48;;;;;;;;;;;6.50;92.80;;;;;;5043800;28;19912;-61
2021/12/06 08:55:14;;;;;;;;;;;6.50;92.70;;;;;;5060114;28;19912;-60
2021/12/06 08:57:39;;;;;;;;;;;6.50;92.70;;;;;;5042142;28;20267;-61
2021/12/06 09:00:06;;;;;;;;;;;6.50;92.70;;;;;;5057114;28;19912;-61
2021/12/06 09:02:31;;;;;;;;;;;6.50;92.70;;;;;;5055610;28;20337;-61
2021/12/06 09:04:58;;;;;;;;;;;6.50;92.60;;;;;;5059821;28;20003;-60
2021/12/06 09:07:24;;;;;;;;;;;6.40;92.70;;;;;;5061058;28;19970;-61
2021/12/06 09:09:50;;;;;;;;;;;6.40;92.60;;;;;;5061349;28;19908;-60
2021/12/06 09:12:16;;;;;;;;;;;6.50;92.70;;;;;;5061032;28;19916;-60
2021/12/06 09:14:41;;;;;;;;;;;6.50;92.60;;;;;;5025957;28;19913;-61
2021/12/06 09:17:07;;;;;;;;;;;6.50;92.60;;;;;;5058743;28;20077;-60
2021/12/06 09:19:33;;;;;;;;;;;6.50;92.70;;;;;;5043412;28;19912;-61
2021/12/06 09:21:58;;;;;;;;;;;6.50;92.70;;;;;;5041281;28;20034;-60
2021/12/06 09:24:24;;;;;;;;;;;6.50;92.60;;;;;;5057570;28;20246;-60
2021/12/06 09:26:49;;;;;;;;;;;6.50;92.50;;;;;;5040774;28;20366;-61
2021/12/06 09:29:15;;;;;;;;;;;6.50;92.50;;;;;;5043915;28;19989;-61
2021/12/06 09:31:40;;;;;;;;;;;6.50;92.50;;;;;;5045036;28;19909;-61
2021/12/06 09:34:06;;;;;;;;;;;6.50;92.50;;;;;;5062272;28;20367;-60
2021/12/06 09:36:33;;;;;;;;;;;6.50;92.40;;;;;;5059797;28;19913;-61
2021/12/06 09:38:58;;;;;;;;;;;6.50;92.50;;;;;;5058271;28;20274;-61
2021/12/06 09:41:26;;;;;;;;;;;6.50;92.40;;;;;;5052350;28;19912;-60
2021/12/06 09:43:52;;;;;;;;;;;6.50;92.40;;;;;;5043067;28;19920;-60
2021/12/06 09:46:17;;;;;;;;;;;6.60;92.50;;;;;;5060085;28;19919;-60
2021/12/06 09:48:43;;;;;;;;;;;6.80;92.50;;;;;;5059175;28;19919;-60
2021/12/06 09:51:11;;;;;;;;;;;6.50;92.40;;;;;;5052399;28;20382;-60
2021/12/06 09:53:37;;;;;;;;;;;6.60;92.40;;;;;;5061920;28;19909;-60
2021/12/06 09:56:07;;;;;;;;;;;6.60;92.40;;;;;;5042317;28;19916;-61
2021/12/06 09:58:32;;;;;;;;;;;6.60;92.30;;;;;;5058002;28;19920;-61
2021/12/06 10:00:59;;;;;;;;;;;6.60;92.30;;;;;;5061644;28;20001;-61
2021/12/06 10:03:28;;;;;;;;;;;6.60;92.30;;;;;;5059806;28;19917;-60
2021/12/06 10:06:01;;;;;;;;;;;6.70;92.30;;;;;;5061392;28;19908;-60
2021/12/06 10:08:26;;;;;;;;;;;6.70;92.30;;;;;;5044479;28;19917;-61
2021/12/06 10:10:52;;;;;;;;;;;6.70;92.30;;;;;;5044079;28;19915;-60
2021/12/06 10:13:18;;;;;;;;;;;6.70;92.30;;;;;;5044522;28;19924;-60
2021/12/06 10:15:43;;;;;;;;;;;6.70;92.30;;;;;;5047738;28;20061;-60
2021/12/06 10:18:10;;;;;;;;;;;6.70;92.20;;;;;;5048699;28;19916;-61
2021/12/06 10:20:35;;;;;;;;;;;6.70;92.10;;;;;;5050640;28;20267;-60
2021/12/06 10:23:00;;;;;;;;;;;6.80;92.10;;;;;;5049853;28;19920;-61
2021/12/06 10:25:34;;;;;;;;;;;6.70;92.10;;;;;;5065019;28;19912;-61
2021/12/06 10:28:04;;;;;;;;;;;6.80;91.90;;;;;;5043525;28;19923;-61
2021/12/06 10:30:31;;;;;;;;;;;6.80;91.90;;;;;;5053548;28;19908;-61
2021/12/06 10:33:00;;;;;;;;;;;6.80;92.00;;;;;;5035829;28;20685;-62
2021/12/06 10:35:26;;;;;;;;;;;6.80;91.90;;;;;;5045072;28;19946;-61
2021/12/06 10:37:52;;;;;;;;;;;6.80;92.00;;;;;;5062756;28;19909;-63
2021/12/06 10:40:19;;;;;;;;;;;6.80;91.90;;;;;;5047761;28;19977;-65
2021/12/06 10:42:45;;;;;;;;;;;6.80;91.90;;;;;;5061926;28;19917;-61
2021/12/06 10:45:15;;;;;;;;;;;6.80;91.90;;;;;;5043395;28;20010;-61
2021/12/06 10:47:40;;;;;;;;;;;6.90;92.00;;;;;;5062844;28;20453;-60
2021/12/06 10:50:16;;;;;;;;;;;6.80;91.90;;;;;;5030063;28;19947;-61
2021/12/06 10:52:52;;;;;;;;;;;6.90;91.80;;;;;;5047414;28;20267;-61
2021/12/06 10:55:17;;;;;;;;;;;6.90;91.80;;;;;;5063810;28;19912;-61
2021/12/06 10:57:47;;;;;;;;;;;6.90;91.80;;;;;;5047085;28;19923;-61
2021/12/06 11:00:32;;;;;;;;;;;6.90;91.80;;;;;;5048403;28;19912;-61
2021/12/06 11:02:58;;;;;;;;;;;6.90;91.90;;;;;;5048394;28;19912;-61
2021/12/06 11:05:24;;;;;;;;;;;6.90;92.00;;;;;;5061198;28;19931;-61
2021/12/06 11:07:56;;;;;;;;;;;6.90;91.90;;;;;;5061871;28;20300;-62
2021/12/06 11:10:24;;;;;;;;;;;7.00;91.90;;;;;;5047423;28;19909;-61
2021/12/06 11:13:09;;;;;;;;;;;7.00;91.80;;;;;;5061622;28;20299;-62
2021/12/06 11:15:35;;;;;;;;;;;7.00;91.80;;;;;;5046734;28;19923;-62
2021/12/06 11:18:01;;;;;;;;;;;7.00;91.90;;;;;;5046134;28;19908;-62
2021/12/06 11:20:26;;;;;;;;;;;7.00;91.80;;;;;;5044818;28;19916;-62
2021/12/06 11:22:52;;;;;;;;;;;7.00;91.70;;;;;;5045596;28;19928;-62
2021/12/06 11:25:17;;;;;;;;;;;7.10;91.70;;;;;;5063978;28;20007;-62
2021/12/06 11:27:44;;;;;;;;;;;7.10;91.70;;;;;;5045478;28;19912;-64
2021/12/06 11:30:11;;;;;;;;;;;7.10;91.80;;;;;;5063446;28;19940;-62
2021/12/06 11:32:38;;;;;;;;;;;7.10;91.80;;;;;;5046095;28;19939;-61
2021/12/06 11:35:08;;;;;;;;;;;7.10;91.70;;;;;;5061800;28;19917;-62
2021/12/06 11:37:37;;;;;;;;;;;7.20;91.70;;;;;;5061266;28;20306;-61
2021/12/06 11:40:17;;;;;;;;;;;7.20;91.70;;;;;;5029324;28;20003;-61
2021/12/06 11:42:47;;;;;;;;;;;7.20;91.70;;;;;;5048629;28;20278;-62
2021/12/06 11:45:12;;;;;;;;;;;7.20;91.70;;;;;;5049261;28;19966;-62
2021/12/06 11:47:38;;;;;;;;;;;7.20;91.60;;;;;;5043955;28;20283;-62
2021/12/06 11:50:03;;;;;;;;;;;7.20;91.60;;;;;;5045895;28;19908;-63
2021/12/06 11:52:29;;;;;;;;;;;7.30;91.60;;;;;;5048619;28;19920;-62
2021/12/06 11:54:56;;;;;;;;;;;7.30;91.50;;;;;;5044546;28;19930;-61
2021/12/06 11:57:29;;;;;;;;;;;7.30;91.60;;;;;;5058103;28;20561;-62
2021/12/06 11:59:56;;;;;;;;;;;7.30;91.50;;;;;;5058192;28;19920;-62
2021/12/06 12:02:57;;;;;;;;;;;7.30;91.50;;;;;;5027832;28;20528;-62
2021/12/06 12:05:31;;;;;;;;;;;7.30;91.50;;;;;;5041410;28;19928;-62
2021/12/06 12:07:58;;;;;;;;;;;7.40;91.60;;;;;;5059246;28;20445;-61
2021/12/06 12:10:30;;;;;;;;;;;7.40;91.60;;;;;;5060100;28;20088;-62
2021/12/06 12:12:55;;;;;;;;;;;7.40;91.60;;;;;;5060736;28;19917;-62
2021/12/06 12:15:21;;;;;;;;;;;7.40;91.50;;;;;;5039848;28;20000;-62
2021/12/06 12:17:49;;;;;;;;;;;7.50;91.60;;;;;;5058946;28;19909;-61
2021/12/06 12:20:14;;;;;;;;;;;7.40;91.50;;;;;;5043187;28;20256;-61
2021/12/06 12:22:43;;;;;;;;;;;7.50;91.60;;;;;;5042463;28;19923;-62
2021/12/06 12:25:19;;;;;;;;;;;7.40;91.50;;;;;;5059568;28;19916;-61
2021/12/06 12:28:05;;;;;;;;;;;7.50;91.50;;;;;;5057365;28;19908;-62
2021/12/06 12:30:34;;;;;;;;;;;7.40;91.50;;;;;;5048641;28;19916;-62
2021/12/06 12:33:00;;;;;;;;;;;7.50;91.40;;;;;;5055830;28;20422;-62
2021/12/06 12:35:26;;;;;;;;;;;7.50;91.30;;;;;;5039074;28;20363;-62
2021/12/06 12:37:54;;;;;;;;;;;7.50;91.30;;;;;;5055927;28;19985;-62
2021/12/06 12:40:20;;;;;;;;;;;7.50;91.30;;;;;;5056330;28;19916;-62
2021/12/06 12:42:56;;;;;;;;;;;7.60;91.30;;;;;;5041582;28;20257;-62
2021/12/06 12:45:22;;;;;;;;;;;7.60;91.20;;;;;;5053844;28;19924;-62
2021/12/06 12:47:47;;;;;;;;;;;7.60;91.20;;;;;;5049154;28;19927;-62
2021/12/06 12:50:14;;;;;;;;;;;7.60;91.10;;;;;;5059012;28;19916;-62
2021/12/06 12:52:40;;;;;;;;;;;7.60;91.00;;;;;;5055199;28;19948;-61
2021/12/06 12:55:22;;;;;;;;;;;7.70;91.00;;;;;;5058878;28;20038;-62
2021/12/06 12:57:47;;;;;;;;;;;7.60;90.90;;;;;;5059532;28;19908;-62
2021/12/06 13:00:18;;;;;;;;;;;7.60;91.00;;;;;;5060651;28;19961;-62
2021/12/06 13:02:45;;;;;;;;;;;7.60;91.20;;;;;;5044476;28;20394;-61
2021/12/06 13:05:12;;;;;;;;;;;7.60;91.00;;;;;;5059011;28;19927;-62
2021/12/06 13:07:38;;;;;;;;;;;7.70;91.00;;;;;;5042328;28;20045;-62
2021/12/06 13:10:22;;;;;;;;;;;7.60;90.90;;;;;;5041835;28;20529;-62
2021/12/06 13:13:18;;;;;;;;;;;7.60;90.90;;;;;;5060858;28;19912;-61
2021/12/06 13:16:07;;;;;;;;;;;7.60;90.80;;;;;;5030945;28;19954;-61
2021/12/06 13:18:37;;;;;;;;;;;7.60;90.80;;;;;;5059559;28;19908;-61
2021/12/06 13:21:25;;;;;;;;;;;7.60;90.70;;;;;;5060898;28;20344;-61
2021/12/06 13:24:02;;;;;;;;;;;7.60;90.60;;;;;;5041191;28;19924;-61
2021/12/06 13:26:33;;;;;;;;;;;7.60;90.70;;;;;;5058094;28;19927;-62
2021/12/06 13:29:03;;;;;;;;;;;7.70;90.60;;;;;;5058309;28;19999;-62
2021/12/06 13:31:28;;;;;;;;;;;7.70;90.60;;;;;;5057984;28;20234;-61
2021/12/06 13:33:55;;;;;;;;;;;7.60;90.60;;;;;;5055470;28;19923;-62
2021/12/06 13:36:48;;;;;;;;;;;7.60;90.60;;;;;;5056148;28;20426;-62
2021/12/06 13:39:34;;;;;;;;;;;7.70;90.60;;;;;;5042339;28;20022;-62
2021/12/06 13:42:00;;;;;;;;;;;7.70;90.50;;;;;;5035609;28;19970;-62
2021/12/06 13:44:46;;;;;;;;;;;7.60;90.50;;;;;;5060310;28;20014;-62
2021/12/06 13:47:21;;;;;;;;;;;7.70;90.50;;;;;;5041790;28;20510;-62
2021/12/06 13:49:52;;;;;;;;;;;7.50;90.40;;;;;;5046122;28;19917;-61
2021/12/06 13:52:26;;;;;;;;;;;7.60;90.40;;;;;;5061949;28;19915;-61
2021/12/06 13:54:51;;;;;;;;;;;7.70;90.50;;;;;;5047374;28;19923;-61
2021/12/06 13:57:18;;;;;;;;;;;7.60;90.40;;;;;;5046100;28;19912;-61
2021/12/06 13:59:46;;;;;;;;;;;7.60;90.50;;;;;;5063977;28;19916;-61
2021/12/06 14:02:16;;;;;;;;;;;7.60;90.50;;;;;;5045646;28;19908;-62
2021/12/06 14:04:42;;;;;;;;;;;7.60;90.50;;;;;;5046016;28;19920;-62
2021/12/06 14:07:08;;;;;;;;;;;7.60;90.50;;;;;;5045026;28;19916;-62
2021/12/06 14:09:34;;;;;;;;;;;7.60;90.50;;;;;;5043144;28;20381;-61
2021/12/06 14:12:02;;;;;;;;;;;7.60;90.50;;;;;;5046315;28;19915;-61
2021/12/06 14:14:28;;;;;;;;;;;7.60;90.50;;;;;;5049665;28;20112;-62
2021/12/06 14:16:54;;;;;;;;;;;7.70;90.50;;;;;;5043741;28;20012;-61
2021/12/06 14:19:22;;;;;;;;;;;7.60;90.50;;;;;;5060655;28;19909;-62
2021/12/06 14:21:47;;;;;;;;;;;7.70;90.40;;;;;;5059728;28;19962;-62
2021/12/06 14:24:13;;;;;;;;;;;7.70;90.40;;;;;;5041161;28;20521;-61
2021/12/06 14:26:43;;;;;;;;;;;7.60;90.40;;;;;;5048913;28;20003;-61
2021/12/06 14:29:15;;;;;;;;;;;7.60;90.30;;;;;;5062595;28;19917;-61
2021/12/06 14:31:41;;;;;;;;;;;7.70;90.30;;;;;;5042811;28;19920;-61
2021/12/06 14:34:07;;;;;;;;;;;7.70;90.20;;;;;;5060628;28;19915;-62
2021/12/06 14:36:32;;;;;;;;;;;7.70;90.30;;;;;;5044458;28;19939;-62
2021/12/06 14:39:05;;;;;;;;;;;7.60;90.30;;;;;;5059700;28;19924;-61
2021/12/06 14:41:31;;;;;;;;;;;7.60;90.40;;;;;;5042151;28;19912;-62
2021/12/06 14:43:56;;;;;;;;;;;7.60;90.40;;;;;;5060830;28;19931;-62
2021/12/06 14:46:22;;;;;;;;;;;7.60;90.40;;;;;;5041519;28;19932;-62
2021/12/06 14:48:49;;;;;;;;;;;7.60;90.40;;;;;;5047294;28;20379;-61
2021/12/06 14:51:16;;;;;;;;;;;7.60;90.40;;;;;;5057804;28;19923;-61